Janet — 9HSL8 — position and weather

sailwx.info

Track history (hours):
 
Tides and Currents Weather Stations Pressure Air Temp Water Temp Dewpoint Dewpoint Depression Visibility Wind Speed Wind Dir Waves Ship Positions

Janet

Last reported at 2014-Oct-23 03:08 UTC. Time now 2014-Oct-24 11:30 UTC.
Position N 50°09' W 002°09'.

Length 90 m; draft 6 m.

Type: Cargo ship. MMSI: 256371000.

Date/timePositionNaut miles runAvg speedWind from/ knotsBaromVisibWave heightAir tempDewpointWater temp
2014-Oct-23 03:08N 50°09' W 002°09'100 9.5
2014-Oct-22 16:33N 50°36' E 000°22'1110.7
2014-Oct-22 15:33N 50°40' E 000°38'1110.8
2014-Oct-22 14:33N 50°46' E 000°52'27 9.1
2014-Oct-22 11:33N 51°03' E 001°26'8 7.9
2014-Oct-22 10:33N 51°08' E 001°35'9 8.7
2014-Oct-22 09:34N 51°14' E 001°45'1010.4
2014-Oct-22 08:33N 51°23' E 001°53'1110.6
2014-Oct-22 07:33N 51°32' E 002°03'11 9.6
2014-Oct-22 06:26N 51°40' E 002°15'60 4.2
2014-Oct-21 16:08N 52°29' E 003°11'1 1.9
2014-Oct-21 15:33N 52°28' E 003°13'78 5.1
2014-Oct-21 00:21N 53°18' E 004°53'7 8.7
2014-Oct-20 23:33N 53°19' E 005°04'8 8.3
2014-Oct-20 22:33N 53°14' E 005°15'7 7.0
2014-Oct-20 21:33N 53°11' E 005°26'0 0.0
2014-Oct-20 20:34N 53°11' E 005°26'0 0.0
2014-Oct-20 19:33N 53°11' E 005°26'0 0.0
2014-Oct-20 18:33N 53°11' E 005°26'0 0.0
2014-Oct-20 17:33N 53°11' E 005°26'0 0.0
2014-Oct-20 16:33N 53°11' E 005°26'0 0.0
2014-Oct-20 15:33N 53°11' E 005°26'0 0.0
2014-Oct-20 14:34N 53°11' E 005°26'0 0.0
2014-Oct-20 13:33N 53°11' E 005°26'0 0.0
2014-Oct-20 12:33N 53°11' E 005°26'0 0.1
2014-Oct-20 11:33N 53°11' E 005°26'0 0.0
2014-Oct-20 10:33N 53°11' E 005°26'0 0.0
2014-Oct-20 09:33N 53°11' E 005°26'0 0.0
2014-Oct-20 08:33N 53°11' E 005°26'0 0.0
2014-Oct-20 07:33N 53°11' E 005°26'0 0.0
2014-Oct-20 06:34N 53°11' E 005°26'0 0.2
2014-Oct-20 05:33N 53°11' E 005°26'6 6.4
2014-Oct-20 04:33N 53°14' E 005°16'9 8.9
2014-Oct-20 03:34N 53°19' E 005°04'15510.2
2014-Oct-19 12:17N 51°25' E 002°13'912.0
2014-Oct-19 11:34N 51°17' E 002°06'1212.0
2014-Oct-19 10:33N 51°10' E 001°51'1312.9
2014-Oct-19 09:33N 51°02' E 001°35'  
Track history (hours):
 
Tides and Currents Weather Stations Pressure Air Temp Water Temp Dewpoint Dewpoint Depression Visibility Wind Speed Wind Dir Waves Ship Positions

Janet

Last reported at 2014-Oct-23 03:08 UTC. Time now 2014-Oct-24 11:30 UTC.
Position N 50°09' W 002°09'.

Length 90 m; draft 6 m.

Type: Cargo ship. MMSI: 256371000.

Date/timePositionNaut miles runAvg speedWind from/ knotsBaromVisibWave heightAir tempDewpointWater temp
2014-Oct-23 03:08N 50°09' W 002°09'100 9.5
2014-Oct-22 16:33N 50°36' E 000°22'1110.7
2014-Oct-22 15:33N 50°40' E 000°38'1110.8
2014-Oct-22 14:33N 50°46' E 000°52'27 9.1
2014-Oct-22 11:33N 51°03' E 001°26'8 7.9
2014-Oct-22 10:33N 51°08' E 001°35'9 8.7
2014-Oct-22 09:34N 51°14' E 001°45'1010.4
2014-Oct-22 08:33N 51°23' E 001°53'1110.6
2014-Oct-22 07:33N 51°32' E 002°03'11 9.6
2014-Oct-22 06:26N 51°40' E 002°15'60 4.2
2014-Oct-21 16:08N 52°29' E 003°11'1 1.9
2014-Oct-21 15:33N 52°28' E 003°13'78 5.1
2014-Oct-21 00:21N 53°18' E 004°53'7 8.7
2014-Oct-20 23:33N 53°19' E 005°04'8 8.3
2014-Oct-20 22:33N 53°14' E 005°15'7 7.0
2014-Oct-20 21:33N 53°11' E 005°26'0 0.0
2014-Oct-20 20:34N 53°11' E 005°26'0 0.0
2014-Oct-20 19:33N 53°11' E 005°26'0 0.0
2014-Oct-20 18:33N 53°11' E 005°26'0 0.0
2014-Oct-20 17:33N 53°11' E 005°26'0 0.0
2014-Oct-20 16:33N 53°11' E 005°26'0 0.0
2014-Oct-20 15:33N 53°11' E 005°26'0 0.0
2014-Oct-20 14:34N 53°11' E 005°26'0 0.0
2014-Oct-20 13:33N 53°11' E 005°26'0 0.0
2014-Oct-20 12:33N 53°11' E 005°26'0 0.1
2014-Oct-20 11:33N 53°11' E 005°26'0 0.0
2014-Oct-20 10:33N 53°11' E 005°26'0 0.0
2014-Oct-20 09:33N 53°11' E 005°26'0 0.0
2014-Oct-20 08:33N 53°11' E 005°26'0 0.0
2014-Oct-20 07:33N 53°11' E 005°26'0 0.0
2014-Oct-20 06:34N 53°11' E 005°26'0 0.2
2014-Oct-20 05:33N 53°11' E 005°26'6 6.4
2014-Oct-20 04:33N 53°14' E 005°16'9 8.9
2014-Oct-20 03:34N 53°19' E 005°04'15510.2
2014-Oct-19 12:17N 51°25' E 002°13'912.0
2014-Oct-19 11:34N 51°17' E 002°06'1212.0
2014-Oct-19 10:33N 51°10' E 001°51'1312.9
2014-Oct-19 09:33N 51°02' E 001°35'  

Dump ship's entire track history